createdAt,value
2018-07-29T00:00:19.626Z,73.64
2018-07-29T00:03:25.123Z,74.06
2018-07-29T00:06:30.313Z,73.35
2018-07-29T00:09:35.992Z,74.13
2018-07-29T00:12:43.047Z,74.42
2018-07-29T00:15:49.868Z,74.66
2018-07-29T00:18:55.879Z,74.20
2018-07-29T00:22:01.692Z,73.95
2018-07-29T00:25:06.835Z,73.93
2018-07-29T00:28:11.721Z,73.86
2018-07-29T00:31:16.575Z,74.45
2018-07-29T00:34:22.702Z,74.39
2018-07-29T00:37:29.473Z,74.94
2018-07-29T00:40:36.241Z,73.99
2018-07-29T00:43:41.990Z,74.97
2018-07-29T00:46:47.942Z,75.02
2018-07-29T00:50:00.255Z,74.55
2018-07-29T00:53:05.955Z,75.01
2018-07-29T00:56:11.293Z,75.23
2018-07-29T00:59:16.333Z,74.18
2018-07-29T01:02:22.468Z,74.24
2018-07-29T01:05:28.522Z,74.65
2018-07-29T01:08:34.621Z,74.63
2018-07-29T01:11:40.920Z,74.80
2018-07-29T01:14:46.783Z,75.08
2018-07-29T01:17:51.608Z,74.86
2018-07-29T01:20:56.933Z,74.71
2018-07-29T01:24:03.006Z,75.72
2018-07-29T01:27:09.118Z,75.25
2018-07-29T01:30:14.097Z,76.28
2018-07-29T01:33:18.988Z,75.62
2018-07-29T01:36:23.801Z,75.95
2018-07-29T01:39:28.646Z,75.96
2018-07-29T01:42:34.005Z,76.16
2018-07-29T01:45:39.850Z,76.71
2018-07-29T01:48:46.098Z,76.70
2018-07-29T01:51:52.309Z,75.79
2018-07-29T01:54:57.937Z,75.76
2018-07-29T01:58:02.752Z,76.71
2018-07-29T02:01:08.346Z,77.53
2018-07-29T02:04:13.200Z,78.03
2018-07-29T02:07:18.048Z,77.86
2018-07-29T02:10:24.891Z,78.09
2018-07-29T02:13:30.342Z,78.25
2018-07-29T02:16:35.718Z,79.01
2018-07-29T02:19:41.258Z,79.62
2018-07-29T02:22:46.048Z,78.27
2018-07-29T02:25:50.854Z,77.13
2018-07-29T02:28:56.083Z,78.13
2018-07-29T02:32:02.041Z,77.91
2018-07-29T02:35:08.128Z,77.39
2018-07-29T02:38:14.253Z,77.61
2018-07-29T02:41:19.414Z,77.11
2018-07-29T02:44:24.242Z,76.60
2018-07-29T02:47:29.057Z,77.23
2018-07-29T02:50:33.885Z,77.08
2018-07-29T02:53:39.466Z,76.67
2018-07-29T02:56:44.633Z,77.44
2018-07-29T02:59:50.465Z,76.22
2018-07-29T03:02:56.097Z,77.01
2018-07-29T03:06:02.202Z,76.74
2018-07-29T03:09:08.689Z,76.98
2018-07-29T03:12:14.650Z,75.77
2018-07-29T03:15:19.789Z,76.29
2018-07-29T03:18:25.878Z,76.21
2018-07-29T03:21:31.012Z,76.00
2018-07-29T03:24:36.134Z,76.19
2018-07-29T03:27:40.934Z,76.79
2018-07-29T03:30:46.673Z,76.04
2018-07-29T03:33:52.658Z,76.68
2018-07-29T03:36:57.450Z,76.92
2018-07-29T03:40:04.183Z,77.25
2018-07-29T03:43:09.614Z,76.57
2018-07-29T03:46:14.758Z,76.19
2018-07-29T03:49:21.762Z,76.72
2018-07-29T03:52:27.492Z,76.04
2018-07-29T03:55:33.278Z,76.26
2018-07-29T03:58:38.845Z,76.12
2018-07-29T04:01:43.674Z,76.16
2018-07-29T04:04:49.440Z,76.57
2018-07-29T04:07:54.946Z,76.84
2018-07-29T04:10:59.766Z,76.78
2018-07-29T04:14:05.721Z,76.28
2018-07-29T04:17:11.657Z,76.29
2018-07-29T04:20:18.478Z,76.11
2018-07-29T04:23:24.224Z,76.55
2018-07-29T04:26:29.950Z,76.32
2018-07-29T04:29:35.377Z,76.26
2018-07-29T04:32:41.957Z,76.90
2018-07-29T04:35:47.574Z,76.82
2018-07-29T04:38:53.422Z,76.87
2018-07-29T04:41:58.234Z,77.00
2018-07-29T04:45:04.020Z,76.80
2018-07-29T04:48:09.577Z,76.61
2018-07-29T04:51:15.333Z,77.13
2018-07-29T04:54:21.142Z,76.71
2018-07-29T04:57:27.906Z,76.56
2018-07-29T05:00:34.298Z,76.23
2018-07-29T05:03:39.127Z,76.39
2018-07-29T05:06:44.305Z,76.26
2018-07-29T05:09:49.575Z,75.87
2018-07-29T05:12:55.300Z,76.42
2018-07-29T05:16:01.038Z,76.31
2018-07-29T05:19:07.823Z,76.19
2018-07-29T05:22:14.825Z,76.28
2018-07-29T05:25:20.561Z,76.50
2018-07-29T05:28:26.336Z,76.41
2018-07-29T05:31:32.128Z,76.10
2018-07-29T05:34:37.451Z,75.70
2018-07-29T05:37:42.503Z,76.02
2018-07-29T05:40:47.321Z,75.23
2018-07-29T05:43:52.131Z,76.42
2018-07-29T05:46:58.898Z,75.45
2018-07-29T05:50:03.879Z,75.45
2018-07-29T05:53:09.506Z,75.43
2018-07-29T05:56:15.345Z,74.97
2018-07-29T05:59:21.054Z,75.25
2018-07-29T06:02:27.333Z,75.29
2018-07-29T06:05:33.278Z,76.15
2018-07-29T06:08:39.853Z,75.31
2018-07-29T06:11:45.665Z,76.53
2018-07-29T06:14:51.673Z,75.78
2018-07-29T06:17:57.081Z,75.70
2018-07-29T06:21:02.234Z,75.40
2018-07-29T06:24:07.637Z,75.03
2018-07-29T06:27:13.008Z,75.62
2018-07-29T06:30:18.850Z,74.96
2018-07-29T06:33:24.150Z,75.16
2018-07-29T06:36:29.337Z,74.52
2018-07-29T06:39:35.074Z,75.08
2018-07-29T06:42:40.972Z,74.73
2018-07-29T06:45:46.830Z,75.05
2018-07-29T06:48:53.746Z,74.55
2018-07-29T06:51:59.184Z,74.32
2018-07-29T06:55:03.973Z,74.14
2018-07-29T06:58:09.693Z,74.17
2018-07-29T07:01:15.390Z,73.83
2018-07-29T07:04:21.065Z,72.81
2018-07-29T07:07:25.900Z,73.19
2018-07-29T07:10:30.928Z,72.56
2018-07-29T07:13:35.906Z,72.86
2018-07-29T07:16:40.757Z,73.00
2018-07-29T07:19:47.583Z,72.75
2018-07-29T07:22:53.587Z,72.10
2018-07-29T07:25:58.482Z,72.01
2018-07-29T07:29:03.777Z,71.72
2018-07-29T07:32:10.481Z,71.53
2018-07-29T07:35:18.313Z,71.29
2018-07-29T07:38:23.885Z,71.57
2018-07-29T07:41:29.741Z,71.39
2018-07-29T07:44:34.954Z,71.31
2018-07-29T07:47:40.694Z,71.51
2018-07-29T07:50:46.533Z,70.93
2018-07-29T07:53:51.365Z,70.57
2018-07-29T07:56:56.169Z,71.50
2018-07-29T08:00:02.325Z,71.35
2018-07-29T08:03:07.147Z,71.28
2018-07-29T08:06:13.757Z,70.59
2018-07-29T08:09:19.420Z,70.69
2018-07-29T08:12:24.401Z,70.47
2018-07-29T08:15:29.959Z,71.32
2018-07-29T08:18:36.665Z,70.38
2018-07-29T08:21:42.901Z,70.35
2018-07-29T08:24:48.478Z,70.31
2018-07-29T08:27:54.563Z,69.53
2018-07-29T08:31:01.858Z,70.21
2018-07-29T08:34:06.743Z,70.18
2018-07-29T08:37:12.069Z,70.21
2018-07-29T08:40:16.886Z,69.96
2018-07-29T08:43:22.766Z,70.19
2018-07-29T08:46:28.530Z,69.63
2018-07-29T08:49:33.610Z,68.99
2018-07-29T08:52:39.382Z,67.98
2018-07-29T08:55:44.712Z,68.87
2018-07-29T08:58:49.641Z,68.00
2018-07-29T09:01:54.743Z,68.71
2018-07-29T09:04:59.881Z,68.41
2018-07-29T09:08:05.654Z,68.28
2018-07-29T09:11:11.054Z,67.41
2018-07-29T09:14:16.833Z,67.65
2018-07-29T09:17:23.217Z,67.22
2018-07-29T09:20:28.067Z,67.79
2018-07-29T09:23:33.666Z,66.29
2018-07-29T09:26:38.469Z,65.18
2018-07-29T09:29:43.827Z,65.76
2018-07-29T09:32:48.649Z,64.28
2018-07-29T09:35:53.476Z,65.06
2018-07-29T09:38:59.918Z,63.56
2018-07-29T09:42:04.777Z,64.86
2018-07-29T09:45:09.844Z,65.40
2018-07-29T09:48:15.181Z,63.44
2018-07-29T09:51:20.690Z,65.10
2018-07-29T09:54:25.544Z,64.01
2018-07-29T09:57:31.372Z,63.31
2018-07-29T10:00:44.689Z,64.11
2018-07-29T10:03:50.071Z,62.76
2018-07-29T10:06:54.885Z,61.11
2018-07-29T10:10:01.432Z,62.11
2018-07-29T10:13:06.742Z,61.08
2018-07-29T10:16:11.889Z,60.39
2018-07-29T10:19:17.616Z,60.46
2018-07-29T10:22:22.837Z,59.01
2018-07-29T10:25:28.018Z,61.22
2018-07-29T10:28:34.093Z,60.77
2018-07-29T10:31:39.349Z,59.31
2018-07-29T10:34:44.540Z,59.65
2018-07-29T10:37:55.543Z,60.02
2018-07-29T10:41:00.705Z,61.54
2018-07-29T10:44:06.818Z,60.43
2018-07-29T10:47:12.042Z,60.95
2018-07-29T10:50:17.817Z,61.85
2018-07-29T10:53:22.675Z,59.76
2018-07-29T10:56:28.521Z,60.15
2018-07-29T10:59:34.004Z,60.12
2018-07-29T11:02:39.995Z,58.54
2018-07-29T11:05:45.754Z,59.12
2018-07-29T11:08:51.323Z,57.97
2018-07-29T11:11:58.655Z,59.06
2018-07-29T11:15:04.398Z,57.67
2018-07-29T11:18:10.157Z,57.93
2018-07-29T11:21:15.641Z,57.81
2018-07-29T11:24:21.477Z,57.60
2018-07-29T11:27:26.570Z,56.88
2018-07-29T11:30:32.287Z,57.02
2018-07-29T11:33:37.817Z,56.96
2018-07-29T11:36:42.638Z,58.89
2018-07-29T11:39:47.961Z,58.22
2018-07-29T11:42:54.724Z,57.19
2018-07-29T11:46:00.165Z,58.88
2018-07-29T11:49:04.968Z,58.16
2018-07-29T11:52:09.809Z,57.97
2018-07-29T11:55:15.349Z,57.90
2018-07-29T11:58:20.546Z,58.33
2018-07-29T12:01:26.917Z,57.80
2018-07-29T12:04:32.546Z,56.58
2018-07-29T12:07:38.321Z,56.81
2018-07-29T12:10:43.704Z,57.41
2018-07-29T12:13:49.416Z,57.27
2018-07-29T12:16:55.077Z,57.56
2018-07-29T12:20:00.796Z,57.08
2018-07-29T12:23:06.219Z,57.60
2018-07-29T12:26:11.056Z,56.61
2018-07-29T12:29:16.900Z,56.31
2018-07-29T12:32:22.628Z,56.50
2018-07-29T12:35:29.068Z,56.68
2018-07-29T12:38:34.617Z,57.09
2018-07-29T12:41:40.352Z,56.20
2018-07-29T12:44:45.893Z,55.48
2018-07-29T12:47:52.007Z,55.26
2018-07-29T12:50:57.385Z,54.91
2018-07-29T12:54:04.502Z,54.89
2018-07-29T12:57:10.273Z,54.03
2018-07-29T13:00:16.035Z,55.04
2018-07-29T13:03:22.177Z,55.26
2018-07-29T13:06:27.045Z,55.55
2018-07-29T13:09:32.281Z,55.61
2018-07-29T13:12:39.044Z,55.44
2018-07-29T13:15:44.532Z,53.84
2018-07-29T13:18:51.289Z,55.64
2018-07-29T13:21:58.268Z,54.82
2018-07-29T13:25:04.133Z,54.62
2018-07-29T13:28:09.668Z,54.61
2018-07-29T13:31:15.415Z,52.73
2018-07-29T13:34:22.091Z,52.26
2018-07-29T13:37:27.279Z,52.89
2018-07-29T13:40:32.620Z,52.99
2018-07-29T13:43:38.706Z,52.88
2018-07-29T13:46:43.525Z,52.46
2018-07-29T13:49:48.681Z,51.68
2018-07-29T13:52:53.504Z,53.08
2018-07-29T13:55:58.882Z,52.19
2018-07-29T13:59:03.926Z,51.94
2018-07-29T14:02:08.740Z,51.45
2018-07-29T14:05:14.169Z,50.78
2018-07-29T14:08:20.039Z,51.69
2018-07-29T14:11:25.277Z,52.63
2018-07-29T14:14:32.105Z,51.64
2018-07-29T14:17:38.113Z,51.68
2018-07-29T14:20:44.853Z,50.47
2018-07-29T14:23:51.012Z,51.53
2018-07-29T14:26:55.848Z,50.51
2018-07-29T14:30:01.071Z,50.26
2018-07-29T14:33:06.122Z,50.63
2018-07-29T14:36:11.849Z,50.63
2018-07-29T14:39:17.253Z,51.22
2018-07-29T14:42:23.098Z,51.04
2018-07-29T14:45:27.918Z,49.64
2018-07-29T14:48:33.298Z,50.06
2018-07-29T14:51:38.554Z,49.81
2018-07-29T14:54:44.322Z,49.06
2018-07-29T14:57:49.849Z,49.82
2018-07-29T15:00:54.683Z,49.40
2018-07-29T15:03:59.995Z,48.96
2018-07-29T15:07:06.771Z,48.90
2018-07-29T15:10:11.597Z,48.26
2018-07-29T15:13:17.037Z,48.40
2018-07-29T15:16:22.371Z,48.73
2018-07-29T15:19:29.493Z,49.08
2018-07-29T15:22:35.193Z,49.18
2018-07-29T15:25:40.933Z,48.90
2018-07-29T15:28:46.997Z,48.41
2018-07-29T15:31:53.382Z,48.18
2018-07-29T15:34:58.207Z,48.21
2018-07-29T15:38:03.898Z,46.89
2018-07-29T15:41:09.530Z,46.97
2018-07-29T15:44:14.333Z,47.25
2018-07-29T15:47:19.513Z,47.67
2018-07-29T15:50:25.593Z,48.42
2018-07-29T15:53:31.337Z,47.57
2018-07-29T15:56:36.677Z,46.85
2018-07-29T15:59:42.438Z,47.02
2018-07-29T16:02:47.953Z,46.63
2018-07-29T16:05:53.718Z,47.21
2018-07-29T16:08:58.538Z,47.29
2018-07-29T16:12:03.830Z,46.81
2018-07-29T16:15:10.207Z,46.42
2018-07-29T16:18:15.741Z,47.57
2018-07-29T16:21:22.114Z,47.69
2018-07-29T16:24:27.281Z,47.63
2018-07-29T16:27:32.298Z,47.84
2018-07-29T16:30:38.714Z,47.78
2018-07-29T16:33:45.492Z,47.55
2018-07-29T16:36:51.179Z,47.51
2018-07-29T16:39:56.933Z,47.74
2018-07-29T16:43:01.782Z,47.77
2018-07-29T16:56:16.211Z,48.36
2018-07-29T16:59:37.378Z,47.43
2018-07-29T17:02:51.792Z,47.61
2018-07-29T17:13:26.835Z,48.43
2018-07-29T17:17:15.397Z,47.94
2018-07-29T17:20:55.304Z,48.15
2018-07-29T17:24:11.751Z,48.58
2018-07-29T17:27:26.350Z,47.68
2018-07-29T17:30:42.834Z,48.52
2018-07-29T17:33:51.650Z,48.40
2018-07-29T17:37:05.075Z,49.28
2018-07-29T17:40:17.556Z,48.64
2018-07-29T17:43:31.465Z,48.91
2018-07-29T17:47:06.582Z,48.69
2018-07-29T17:50:15.217Z,48.70
2018-07-29T17:53:25.351Z,48.77
2018-07-29T17:56:34.032Z,49.38
2018-07-29T17:59:42.234Z,49.24
2018-07-29T18:02:58.448Z,48.77
2018-07-29T18:06:09.709Z,49.04
2018-07-29T18:09:22.354Z,50.05
2018-07-29T18:15:59.634Z,50.24
2018-07-29T18:19:08.042Z,50.14
2018-07-29T18:22:35.027Z,49.53
2018-07-29T18:25:39.880Z,50.33
2018-07-29T18:28:45.215Z,49.58
2018-07-29T18:31:50.123Z,49.85
2018-07-29T18:34:54.984Z,50.57
2018-07-29T18:38:01.162Z,49.82
2018-07-29T18:41:06.946Z,50.14
2018-07-29T18:44:13.733Z,50.42
2018-07-29T18:47:18.761Z,50.86
2018-07-29T18:50:24.885Z,50.19
2018-07-29T18:53:30.941Z,51.03
2018-07-29T18:56:37.456Z,50.78
2018-07-29T18:59:42.990Z,51.16
2018-07-29T19:02:47.893Z,51.44
2018-07-29T19:05:54.030Z,51.10
2018-07-29T19:08:59.788Z,51.24
2018-07-29T19:12:05.476Z,51.63
2018-07-29T19:15:11.364Z,51.56
2018-07-29T19:18:17.012Z,51.06
2018-07-29T19:21:23.370Z,51.11
2018-07-29T19:24:30.290Z,50.52
2018-07-29T19:27:37.273Z,51.96
2018-07-29T19:30:42.609Z,50.96
2018-07-29T19:33:47.801Z,50.97
2018-07-29T19:36:53.929Z,50.95
2018-07-29T19:40:00.021Z,51.07
2018-07-29T19:43:06.413Z,51.18
2018-07-29T19:46:12.719Z,51.23
2018-07-29T19:49:19.000Z,51.62
2018-07-29T19:52:25.475Z,51.33
2018-07-29T19:55:30.815Z,51.46
2018-07-29T19:58:37.481Z,51.93
2018-07-29T20:01:43.104Z,52.32
2018-07-29T20:04:48.973Z,51.99
2018-07-29T20:07:54.114Z,52.48
2018-07-29T20:11:06.219Z,51.93
2018-07-29T20:14:20.248Z,52.03
2018-07-29T20:17:30.593Z,52.81
2018-07-29T20:20:41.643Z,52.86
2018-07-29T20:23:49.775Z,52.86
2018-07-29T20:26:58.418Z,52.21
2018-07-29T20:30:14.756Z,52.87
2018-07-29T20:33:31.869Z,53.21
2018-07-29T20:36:44.005Z,52.37
2018-07-29T20:39:53.225Z,52.47
2018-07-29T20:43:02.485Z,52.88
2018-07-29T20:46:13.984Z,53.51
2018-07-29T20:49:28.213Z,53.42
2018-07-29T20:52:33.641Z,53.01
2018-07-29T20:55:39.069Z,53.21
2018-07-29T20:58:44.207Z,53.59
2018-07-29T21:01:49.103Z,53.12
2018-07-29T21:04:54.060Z,53.09
2018-07-29T21:07:58.874Z,53.21
2018-07-29T21:11:04.925Z,53.96
2018-07-29T21:14:10.848Z,53.21
2018-07-29T21:17:16.757Z,53.37
2018-07-29T21:20:22.971Z,53.58
2018-07-29T21:23:28.785Z,53.90
2018-07-29T21:26:33.580Z,53.53
2018-07-29T21:29:39.189Z,54.66
2018-07-29T21:32:44.025Z,54.01
2018-07-29T21:35:50.688Z,54.26
2018-07-29T21:38:56.121Z,53.97
2018-07-29T21:42:00.918Z,53.98
2018-07-29T21:45:06.925Z,53.80
2018-07-29T21:48:12.394Z,54.15
2018-07-29T21:51:19.900Z,54.67
2018-07-29T21:54:27.077Z,54.11
2018-07-29T21:57:32.550Z,54.23
2018-07-29T22:00:43.029Z,54.28
2018-07-29T22:03:48.150Z,55.15
2018-07-29T22:06:54.147Z,54.82
2018-07-29T22:09:59.255Z,55.04
2018-07-29T22:13:04.781Z,54.30
2018-07-29T22:16:11.132Z,54.32
2018-07-29T22:19:17.026Z,54.81
2018-07-29T22:22:22.065Z,55.37
2018-07-29T22:25:32.723Z,55.40
2018-07-29T22:28:45.110Z,55.50
2018-07-29T22:31:56.189Z,56.38
2018-07-29T22:35:02.288Z,55.88
2018-07-29T22:38:07.537Z,56.83
2018-07-29T22:41:14.692Z,56.16
2018-07-29T22:44:20.590Z,56.89
2018-07-29T22:47:26.729Z,56.17
2018-07-29T22:50:32.615Z,56.77
2018-07-29T22:53:38.303Z,55.88
2018-07-29T22:56:45.310Z,56.29
2018-07-29T22:59:52.402Z,57.21
2018-07-29T23:02:58.122Z,57.57
2018-07-29T23:06:03.665Z,57.55
2018-07-29T23:09:10.821Z,57.72
2018-07-29T23:12:15.791Z,57.74
2018-07-29T23:15:21.900Z,58.22
2018-07-29T23:18:27.732Z,57.34
2018-07-29T23:21:33.629Z,58.40
2018-07-29T23:24:39.170Z,58.64
2018-07-29T23:27:44.997Z,57.78
2018-07-29T23:30:51.836Z,59.09
2018-07-29T23:33:57.561Z,58.93
2018-07-29T23:37:03.780Z,58.16
2018-07-29T23:40:09.133Z,58.65
2018-07-29T23:43:14.296Z,59.45
2018-07-29T23:46:20.328Z,58.57
2018-07-29T23:49:26.209Z,58.57
2018-07-29T23:52:31.392Z,59.32
2018-07-29T23:55:37.113Z,58.87
2018-07-29T23:58:42.416Z,59.15
